sensor_id;sensor_type;location;lat;lon;timestamp;P1;durP1;ratioP1;P2;durP2;ratioP2
54977;SDS011;40873;47.522;19.106;2024-02-21T00:01:35;7.60;;;4.78;;
54977;SDS011;40873;47.522;19.106;2024-02-21T00:04:02;5.85;;;4.80;;
54977;SDS011;40873;47.522;19.106;2024-02-21T00:06:29;7.30;;;5.03;;
54977;SDS011;40873;47.522;19.106;2024-02-21T00:08:56;7.25;;;4.68;;
54977;SDS011;40873;47.522;19.106;2024-02-21T00:11:23;7.03;;;4.88;;
54977;SDS011;40873;47.522;19.106;2024-02-21T00:13:50;6.32;;;4.40;;
54977;SDS011;40873;47.522;19.106;2024-02-21T00:16:18;6.43;;;3.85;;
54977;SDS011;40873;47.522;19.106;2024-02-21T00:18:48;5.43;;;3.20;;
54977;SDS011;40873;47.522;19.106;2024-02-21T00:21:15;5.35;;;3.17;;
54977;SDS011;40873;47.522;19.106;2024-02-21T00:23:45;6.47;;;4.03;;
54977;SDS011;40873;47.522;19.106;2024-02-21T00:26:12;4.65;;;3.25;;
54977;SDS011;40873;47.522;19.106;2024-02-21T00:28:40;4.85;;;2.72;;
54977;SDS011;40873;47.522;19.106;2024-02-21T00:31:07;5.88;;;2.92;;
54977;SDS011;40873;47.522;19.106;2024-02-21T00:33:34;4.30;;;3.22;;
54977;SDS011;40873;47.522;19.106;2024-02-21T00:36:01;5.82;;;3.22;;
54977;SDS011;40873;47.522;19.106;2024-02-21T00:38:28;4.60;;;3.05;;
54977;SDS011;40873;47.522;19.106;2024-02-21T00:40:55;4.82;;;3.08;;
54977;SDS011;40873;47.522;19.106;2024-02-21T00:43:23;3.50;;;2.33;;
54977;SDS011;40873;47.522;19.106;2024-02-21T00:45:51;4.43;;;2.58;;
54977;SDS011;40873;47.522;19.106;2024-02-21T00:48:19;4.20;;;2.95;;
54977;SDS011;40873;47.522;19.106;2024-02-21T00:50:46;3.53;;;2.50;;
54977;SDS011;40873;47.522;19.106;2024-02-21T00:53:13;3.63;;;2.42;;
54977;SDS011;40873;47.522;19.106;2024-02-21T00:55:40;4.07;;;2.30;;
54977;SDS011;40873;47.522;19.106;2024-02-21T00:58:08;4.20;;;2.10;;
54977;SDS011;40873;47.522;19.106;2024-02-21T01:00:34;4.18;;;2.20;;
54977;SDS011;40873;47.522;19.106;2024-02-21T01:03:02;4.63;;;2.10;;
54977;SDS011;40873;47.522;19.106;2024-02-21T01:05:28;4.65;;;1.75;;
54977;SDS011;40873;47.522;19.106;2024-02-21T01:07:56;3.58;;;1.75;;
54977;SDS011;40873;47.522;19.106;2024-02-21T01:10:23;3.10;;;1.88;;
54977;SDS011;40873;47.522;19.106;2024-02-21T01:12:50;4.13;;;1.60;;
54977;SDS011;40873;47.522;19.106;2024-02-21T01:15:17;4.32;;;2.22;;
54977;SDS011;40873;47.522;19.106;2024-02-21T01:17:45;3.78;;;1.60;;
54977;SDS011;40873;47.522;19.106;2024-02-21T01:20:12;2.92;;;1.75;;
54977;SDS011;40873;47.522;19.106;2024-02-21T01:22:39;3.90;;;1.30;;
54977;SDS011;40873;47.522;19.106;2024-02-21T01:25:06;3.13;;;1.55;;
54977;SDS011;40873;47.522;19.106;2024-02-21T01:27:34;4.32;;;1.70;;
54977;SDS011;40873;47.522;19.106;2024-02-21T01:30:00;2.30;;;1.40;;
54977;SDS011;40873;47.522;19.106;2024-02-21T01:32:28;3.85;;;1.15;;
54977;SDS011;40873;47.522;19.106;2024-02-21T01:34:55;4.35;;;2.00;;
54977;SDS011;40873;47.522;19.106;2024-02-21T01:37:22;3.95;;;2.00;;
54977;SDS011;40873;47.522;19.106;2024-02-21T01:39:50;4.10;;;1.75;;
54977;SDS011;40873;47.522;19.106;2024-02-21T01:42:20;5.07;;;1.35;;
54977;SDS011;40873;47.522;19.106;2024-02-21T01:44:47;5.35;;;1.80;;
54977;SDS011;40873;47.522;19.106;2024-02-21T01:47:14;4.15;;;1.50;;
54977;SDS011;40873;47.522;19.106;2024-02-21T01:49:41;4.55;;;1.92;;
54977;SDS011;40873;47.522;19.106;2024-02-21T01:52:08;4.18;;;1.98;;
54977;SDS011;40873;47.522;19.106;2024-02-21T01:54:37;4.55;;;1.73;;
54977;SDS011;40873;47.522;19.106;2024-02-21T01:57:04;5.72;;;1.98;;
54977;SDS011;40873;47.522;19.106;2024-02-21T01:59:32;4.30;;;1.63;;
54977;SDS011;40873;47.522;19.106;2024-02-21T02:01:59;3.25;;;1.98;;
54977;SDS011;40873;47.522;19.106;2024-02-21T02:04:27;5.13;;;2.75;;
54977;SDS011;40873;47.522;19.106;2024-02-21T02:06:54;3.15;;;1.65;;
54977;SDS011;40873;47.522;19.106;2024-02-21T02:09:22;3.65;;;1.83;;
54977;SDS011;40873;47.522;19.106;2024-02-21T02:11:49;5.38;;;2.03;;
54977;SDS011;40873;47.522;19.106;2024-02-21T02:14:16;3.78;;;2.20;;
54977;SDS011;40873;47.522;19.106;2024-02-21T02:16:46;11.45;;;2.75;;
54977;SDS011;40873;47.522;19.106;2024-02-21T02:19:14;4.32;;;2.00;;
54977;SDS011;40873;47.522;19.106;2024-02-21T02:21:45;3.17;;;1.80;;
54977;SDS011;40873;47.522;19.106;2024-02-21T02:24:20;4.85;;;2.22;;
54977;SDS011;40873;47.522;19.106;2024-02-21T02:26:48;9.98;;;2.88;;
54977;SDS011;40873;47.522;19.106;2024-02-21T02:29:15;4.10;;;2.38;;
54977;SDS011;40873;47.522;19.106;2024-02-21T02:31:43;3.97;;;2.40;;
54977;SDS011;40873;47.522;19.106;2024-02-21T02:34:10;8.23;;;2.60;;
54977;SDS011;40873;47.522;19.106;2024-02-21T02:36:38;4.35;;;2.20;;
54977;SDS011;40873;47.522;19.106;2024-02-21T02:39:05;3.83;;;2.05;;
54977;SDS011;40873;47.522;19.106;2024-02-21T02:41:34;9.02;;;2.60;;
54977;SDS011;40873;47.522;19.106;2024-02-21T02:44:02;6.43;;;2.38;;
54977;SDS011;40873;47.522;19.106;2024-02-21T02:46:29;4.95;;;2.47;;
54977;SDS011;40873;47.522;19.106;2024-02-21T02:48:56;4.65;;;1.90;;
54977;SDS011;40873;47.522;19.106;2024-02-21T02:51:23;5.97;;;2.42;;
54977;SDS011;40873;47.522;19.106;2024-02-21T02:53:50;5.78;;;2.33;;
54977;SDS011;40873;47.522;19.106;2024-02-21T02:56:18;3.50;;;2.03;;
54977;SDS011;40873;47.522;19.106;2024-02-21T02:58:44;6.05;;;2.33;;
54977;SDS011;40873;47.522;19.106;2024-02-21T03:01:12;6.22;;;2.33;;
54977;SDS011;40873;47.522;19.106;2024-02-21T03:03:40;5.90;;;2.40;;
54977;SDS011;40873;47.522;19.106;2024-02-21T03:06:07;5.07;;;2.38;;
54977;SDS011;40873;47.522;19.106;2024-02-21T03:08:34;7.53;;;2.78;;
54977;SDS011;40873;47.522;19.106;2024-02-21T03:11:01;7.47;;;2.72;;
54977;SDS011;40873;47.522;19.106;2024-02-21T03:13:28;4.82;;;2.58;;
54977;SDS011;40873;47.522;19.106;2024-02-21T03:15:55;7.30;;;2.72;;
54977;SDS011;40873;47.522;19.106;2024-02-21T03:18:22;8.07;;;2.55;;
54977;SDS011;40873;47.522;19.106;2024-02-21T03:20:50;4.68;;;2.53;;
54977;SDS011;40873;47.522;19.106;2024-02-21T03:23:17;5.25;;;3.03;;
54977;SDS011;40873;47.522;19.106;2024-02-21T03:25:44;4.57;;;2.75;;
54977;SDS011;40873;47.522;19.106;2024-02-21T03:28:11;6.70;;;3.00;;
54977;SDS011;40873;47.522;19.106;2024-02-21T03:30:38;5.20;;;2.70;;
54977;SDS011;40873;47.522;19.106;2024-02-21T03:33:05;8.05;;;3.20;;
54977;SDS011;40873;47.522;19.106;2024-02-21T03:35:32;3.78;;;2.47;;
54977;SDS011;40873;47.522;19.106;2024-02-21T03:37:59;4.18;;;2.80;;
54977;SDS011;40873;47.522;19.106;2024-02-21T03:40:27;5.88;;;2.83;;
54977;SDS011;40873;47.522;19.106;2024-02-21T03:42:54;8.00;;;3.45;;
54977;SDS011;40873;47.522;19.106;2024-02-21T03:45:21;4.20;;;2.53;;
54977;SDS011;40873;47.522;19.106;2024-02-21T03:47:48;7.28;;;3.10;;
54977;SDS011;40873;47.522;19.106;2024-02-21T03:50:16;5.93;;;2.63;;
54977;SDS011;40873;47.522;19.106;2024-02-21T03:52:44;9.02;;;3.45;;
54977;SDS011;40873;47.522;19.106;2024-02-21T03:55:12;6.32;;;3.20;;
54977;SDS011;40873;47.522;19.106;2024-02-21T03:57:39;5.30;;;3.25;;
54977;SDS011;40873;47.522;19.106;2024-02-21T04:00:06;5.28;;;3.38;;
54977;SDS011;40873;47.522;19.106;2024-02-21T04:02:37;4.63;;;3.00;;
54977;SDS011;40873;47.522;19.106;2024-02-21T04:05:04;5.03;;;3.00;;
54977;SDS011;40873;47.522;19.106;2024-02-21T04:07:32;6.10;;;3.13;;
54977;SDS011;40873;47.522;19.106;2024-02-21T04:10:00;7.28;;;3.20;;
54977;SDS011;40873;47.522;19.106;2024-02-21T04:12:26;7.88;;;3.38;;
54977;SDS011;40873;47.522;19.106;2024-02-21T04:14:54;6.70;;;3.10;;
54977;SDS011;40873;47.522;19.106;2024-02-21T04:17:20;8.80;;;3.90;;
54977;SDS011;40873;47.522;19.106;2024-02-21T04:19:48;8.60;;;3.45;;
54977;SDS011;40873;47.522;19.106;2024-02-21T04:22:15;6.32;;;3.42;;
54977;SDS011;40873;47.522;19.106;2024-02-21T04:24:42;7.38;;;3.72;;
54977;SDS011;40873;47.522;19.106;2024-02-21T04:27:12;7.80;;;3.28;;
54977;SDS011;40873;47.522;19.106;2024-02-21T04:29:39;9.50;;;4.07;;
54977;SDS011;40873;47.522;19.106;2024-02-21T04:32:06;6.00;;;3.22;;
54977;SDS011;40873;47.522;19.106;2024-02-21T04:34:33;7.22;;;4.32;;
54977;SDS011;40873;47.522;19.106;2024-02-21T04:37:00;8.35;;;3.75;;
54977;SDS011;40873;47.522;19.106;2024-02-21T04:39:27;6.50;;;3.80;;
54977;SDS011;40873;47.522;19.106;2024-02-21T04:41:54;9.48;;;4.05;;
54977;SDS011;40873;47.522;19.106;2024-02-21T04:44:21;8.23;;;3.80;;
54977;SDS011;40873;47.522;19.106;2024-02-21T04:46:49;7.97;;;3.50;;
54977;SDS011;40873;47.522;19.106;2024-02-21T04:49:16;9.25;;;3.40;;
54977;SDS011;40873;47.522;19.106;2024-02-21T04:51:44;8.50;;;4.10;;
54977;SDS011;40873;47.522;19.106;2024-02-21T04:54:11;7.53;;;4.20;;
54977;SDS011;40873;47.522;19.106;2024-02-21T04:56:38;7.18;;;3.60;;
54977;SDS011;40873;47.522;19.106;2024-02-21T04:59:05;8.70;;;4.47;;
54977;SDS011;40873;47.522;19.106;2024-02-21T05:01:32;6.55;;;3.92;;
54977;SDS011;40873;47.522;19.106;2024-02-21T05:03:59;9.52;;;4.22;;
54977;SDS011;40873;47.522;19.106;2024-02-21T05:06:26;8.32;;;4.20;;
54977;SDS011;40873;47.522;19.106;2024-02-21T05:08:53;9.63;;;4.78;;
54977;SDS011;40873;47.522;19.106;2024-02-21T05:11:21;9.10;;;4.55;;
54977;SDS011;40873;47.522;19.106;2024-02-21T05:13:49;9.20;;;4.32;;
54977;SDS011;40873;47.522;19.106;2024-02-21T05:16:16;8.40;;;4.45;;
54977;SDS011;40873;47.522;19.106;2024-02-21T05:18:46;9.35;;;5.22;;
54977;SDS011;40873;47.522;19.106;2024-02-21T05:21:13;9.35;;;5.20;;
54977;SDS011;40873;47.522;19.106;2024-02-21T05:23:41;9.52;;;4.57;;
54977;SDS011;40873;47.522;19.106;2024-02-21T05:26:08;11.40;;;4.97;;
54977;SDS011;40873;47.522;19.106;2024-02-21T05:28:35;8.55;;;5.72;;
54977;SDS011;40873;47.522;19.106;2024-02-21T05:31:02;10.02;;;4.80;;
54977;SDS011;40873;47.522;19.106;2024-02-21T05:33:32;8.00;;;4.78;;
54977;SDS011;40873;47.522;19.106;2024-02-21T05:35:59;8.43;;;4.43;;
54977;SDS011;40873;47.522;19.106;2024-02-21T05:38:26;10.35;;;5.30;;
54977;SDS011;40873;47.522;19.106;2024-02-21T05:40:53;8.98;;;5.13;;
54977;SDS011;40873;47.522;19.106;2024-02-21T05:43:21;8.50;;;4.75;;
54977;SDS011;40873;47.522;19.106;2024-02-21T05:45:48;9.25;;;4.47;;
54977;SDS011;40873;47.522;19.106;2024-02-21T05:48:18;9.93;;;4.85;;
54977;SDS011;40873;47.522;19.106;2024-02-21T05:50:45;8.50;;;4.18;;
54977;SDS011;40873;47.522;19.106;2024-02-21T05:53:12;10.07;;;4.85;;
54977;SDS011;40873;47.522;19.106;2024-02-21T05:55:39;5.25;;;3.58;;
54977;SDS011;40873;47.522;19.106;2024-02-21T05:58:07;6.88;;;4.15;;
54977;SDS011;40873;47.522;19.106;2024-02-21T06:00:38;7.18;;;4.25;;
54977;SDS011;40873;47.522;19.106;2024-02-21T06:03:05;9.55;;;4.13;;
54977;SDS011;40873;47.522;19.106;2024-02-21T06:05:36;10.18;;;4.50;;
54977;SDS011;40873;47.522;19.106;2024-02-21T06:08:05;6.32;;;4.50;;
54977;SDS011;40873;47.522;19.106;2024-02-21T06:10:32;7.60;;;4.45;;
54977;SDS011;40873;47.522;19.106;2024-02-21T06:12:59;9.52;;;4.07;;
54977;SDS011;40873;47.522;19.106;2024-02-21T06:15:26;9.27;;;4.35;;
54977;SDS011;40873;47.522;19.106;2024-02-21T06:17:54;6.10;;;4.10;;
54977;SDS011;40873;47.522;19.106;2024-02-21T06:20:23;10.48;;;3.80;;
54977;SDS011;40873;47.522;19.106;2024-02-21T06:22:50;10.23;;;4.22;;
54977;SDS011;40873;47.522;19.106;2024-02-21T06:25:17;8.75;;;3.63;;
54977;SDS011;40873;47.522;19.106;2024-02-21T06:27:45;8.52;;;3.65;;
54977;SDS011;40873;47.522;19.106;2024-02-21T06:30:12;8.82;;;3.72;;
54977;SDS011;40873;47.522;19.106;2024-02-21T06:32:39;10.20;;;4.47;;
54977;SDS011;40873;47.522;19.106;2024-02-21T06:35:06;8.45;;;3.58;;
54977;SDS011;40873;47.522;19.106;2024-02-21T06:37:34;9.18;;;4.70;;
54977;SDS011;40873;47.522;19.106;2024-02-21T06:40:01;11.38;;;4.03;;
54977;SDS011;40873;47.522;19.106;2024-02-21T06:42:28;9.43;;;4.20;;
54977;SDS011;40873;47.522;19.106;2024-02-21T06:44:56;11.00;;;3.80;;
54977;SDS011;40873;47.522;19.106;2024-02-21T06:47:23;8.10;;;4.50;;
54977;SDS011;40873;47.522;19.106;2024-02-21T06:49:51;10.57;;;4.82;;
54977;SDS011;40873;47.522;19.106;2024-02-21T06:52:18;15.18;;;5.00;;
54977;SDS011;40873;47.522;19.106;2024-02-21T06:54:49;7.45;;;3.70;;
54977;SDS011;40873;47.522;19.106;2024-02-21T06:57:16;10.80;;;4.72;;
54977;SDS011;40873;47.522;19.106;2024-02-21T06:59:44;13.57;;;5.30;;
54977;SDS011;40873;47.522;19.106;2024-02-21T07:02:11;11.00;;;3.90;;
54977;SDS011;40873;47.522;19.106;2024-02-21T07:04:38;7.75;;;3.80;;
54977;SDS011;40873;47.522;19.106;2024-02-21T07:07:06;12.57;;;4.10;;
54977;SDS011;40873;47.522;19.106;2024-02-21T07:09:33;15.38;;;4.72;;
54977;SDS011;40873;47.522;19.106;2024-02-21T07:12:00;8.20;;;5.20;;
54977;SDS011;40873;47.522;19.106;2024-02-21T07:14:28;7.70;;;4.55;;
54977;SDS011;40873;47.522;19.106;2024-02-21T07:16:55;10.65;;;4.20;;
54977;SDS011;40873;47.522;19.106;2024-02-21T07:19:23;9.25;;;3.75;;
54977;SDS011;40873;47.522;19.106;2024-02-21T07:21:51;11.88;;;4.38;;
54977;SDS011;40873;47.522;19.106;2024-02-21T07:24:18;10.57;;;4.53;;
54977;SDS011;40873;47.522;19.106;2024-02-21T07:26:45;8.18;;;4.20;;
54977;SDS011;40873;47.522;19.106;2024-02-21T07:29:12;6.72;;;3.85;;
54977;SDS011;40873;47.522;19.106;2024-02-21T07:31:43;9.95;;;4.43;;
54977;SDS011;40873;47.522;19.106;2024-02-21T07:34:10;10.52;;;4.82;;
54977;SDS011;40873;47.522;19.106;2024-02-21T07:36:38;13.90;;;4.82;;
54977;SDS011;40873;47.522;19.106;2024-02-21T07:39:05;9.30;;;3.67;;
54977;SDS011;40873;47.522;19.106;2024-02-21T07:41:32;9.15;;;3.85;;
54977;SDS011;40873;47.522;19.106;2024-02-21T07:44:01;9.40;;;4.05;;
54977;SDS011;40873;47.522;19.106;2024-02-21T07:46:28;6.25;;;3.53;;
54977;SDS011;40873;47.522;19.106;2024-02-21T07:48:55;8.45;;;3.97;;
54977;SDS011;40873;47.522;19.106;2024-02-21T07:51:22;5.53;;;3.50;;
54977;SDS011;40873;47.522;19.106;2024-02-21T07:53:56;10.23;;;3.65;;
54977;SDS011;40873;47.522;19.106;2024-02-21T07:56:27;10.27;;;4.18;;
54977;SDS011;40873;47.522;19.106;2024-02-21T07:58:57;8.65;;;3.63;;
54977;SDS011;40873;47.522;19.106;2024-02-21T08:01:25;10.02;;;3.35;;
54977;SDS011;40873;47.522;19.106;2024-02-21T08:03:52;14.27;;;3.15;;
54977;SDS011;40873;47.522;19.106;2024-02-21T08:06:19;9.57;;;4.03;;
54977;SDS011;40873;47.522;19.106;2024-02-21T08:08:46;11.85;;;4.43;;
54977;SDS011;40873;47.522;19.106;2024-02-21T08:11:14;7.07;;;3.45;;
54977;SDS011;40873;47.522;19.106;2024-02-21T08:13:41;6.43;;;3.38;;
54977;SDS011;40873;47.522;19.106;2024-02-21T08:16:08;8.25;;;3.80;;
54977;SDS011;40873;47.522;19.106;2024-02-21T08:18:35;7.50;;;3.45;;
54977;SDS011;40873;47.522;19.106;2024-02-21T08:21:05;11.30;;;3.25;;
54977;SDS011;40873;47.522;19.106;2024-02-21T08:23:32;4.00;;;2.53;;
54977;SDS011;40873;47.522;19.106;2024-02-21T08:25:59;5.15;;;2.88;;
54977;SDS011;40873;47.522;19.106;2024-02-21T08:28:26;9.45;;;3.95;;
54977;SDS011;40873;47.522;19.106;2024-02-21T08:30:57;8.98;;;3.55;;
54977;SDS011;40873;47.522;19.106;2024-02-21T08:33:23;7.93;;;3.28;;
54977;SDS011;40873;47.522;19.106;2024-02-21T08:35:52;6.43;;;2.65;;
54977;SDS011;40873;47.522;19.106;2024-02-21T08:38:19;11.07;;;3.05;;
54977;SDS011;40873;47.522;19.106;2024-02-21T08:40:46;6.68;;;2.63;;
54977;SDS011;40873;47.522;19.106;2024-02-21T08:43:13;13.93;;;3.30;;
54977;SDS011;40873;47.522;19.106;2024-02-21T08:45:40;9.85;;;2.85;;
54977;SDS011;40873;47.522;19.106;2024-02-21T08:48:07;8.90;;;2.80;;
54977;SDS011;40873;47.522;19.106;2024-02-21T08:50:35;7.57;;;2.85;;
54977;SDS011;40873;47.522;19.106;2024-02-21T08:53:03;5.05;;;2.70;;
54977;SDS011;40873;47.522;19.106;2024-02-21T08:55:30;9.15;;;2.90;;
54977;SDS011;40873;47.522;19.106;2024-02-21T08:57:57;7.55;;;3.00;;
54977;SDS011;40873;47.522;19.106;2024-02-21T09:00:24;6.38;;;2.83;;
54977;SDS011;40873;47.522;19.106;2024-02-21T09:02:54;6.65;;;2.40;;
54977;SDS011;40873;47.522;19.106;2024-02-21T09:05:23;9.32;;;2.78;;
54977;SDS011;40873;47.522;19.106;2024-02-21T09:07:51;7.50;;;2.53;;
54977;SDS011;40873;47.522;19.106;2024-02-21T09:10:19;10.38;;;2.88;;
54977;SDS011;40873;47.522;19.106;2024-02-21T09:12:46;7.25;;;2.30;;
54977;SDS011;40873;47.522;19.106;2024-02-21T09:15:14;6.43;;;2.22;;
54977;SDS011;40873;47.522;19.106;2024-02-21T09:17:41;4.97;;;1.92;;
54977;SDS011;40873;47.522;19.106;2024-02-21T09:20:08;8.32;;;2.53;;
54977;SDS011;40873;47.522;19.106;2024-02-21T09:22:38;9.23;;;2.33;;
54977;SDS011;40873;47.522;19.106;2024-02-21T09:25:06;6.53;;;2.58;;
54977;SDS011;40873;47.522;19.106;2024-02-21T09:27:34;8.05;;;2.45;;
54977;SDS011;40873;47.522;19.106;2024-02-21T09:30:01;5.30;;;2.78;;
54977;SDS011;40873;47.522;19.106;2024-02-21T09:32:31;10.25;;;2.60;;
54977;SDS011;40873;47.522;19.106;2024-02-21T09:34:59;10.45;;;2.88;;
54977;SDS011;40873;47.522;19.106;2024-02-21T09:37:28;8.38;;;2.80;;
54977;SDS011;40873;47.522;19.106;2024-02-21T09:39:56;5.93;;;2.88;;
54977;SDS011;40873;47.522;19.106;2024-02-21T09:42:24;9.52;;;3.00;;
54977;SDS011;40873;47.522;19.106;2024-02-21T09:45:02;10.15;;;2.42;;
54977;SDS011;40873;47.522;19.106;2024-02-21T09:47:33;7.95;;;2.35;;
54977;SDS011;40873;47.522;19.106;2024-02-21T09:50:07;8.85;;;2.92;;
54977;SDS011;40873;47.522;19.106;2024-02-21T09:52:35;7.57;;;2.45;;
54977;SDS011;40873;47.522;19.106;2024-02-21T09:55:03;6.20;;;2.53;;
54977;SDS011;40873;47.522;19.106;2024-02-21T09:57:32;7.07;;;2.00;;
54977;SDS011;40873;47.522;19.106;2024-02-21T09:59:59;8.40;;;2.58;;
54977;SDS011;40873;47.522;19.106;2024-02-21T10:02:30;5.68;;;1.90;;
54977;SDS011;40873;47.522;19.106;2024-02-21T10:04:58;6.80;;;2.10;;
54977;SDS011;40873;47.522;19.106;2024-02-21T10:07:25;10.65;;;2.67;;
54977;SDS011;40873;47.522;19.106;2024-02-21T10:10:05;9.27;;;2.33;;
54977;SDS011;40873;47.522;19.106;2024-02-21T10:12:32;6.68;;;2.30;;
54977;SDS011;40873;47.522;19.106;2024-02-21T10:15:03;6.53;;;1.98;;
54977;SDS011;40873;47.522;19.106;2024-02-21T10:17:31;12.88;;;3.13;;
54977;SDS011;40873;47.522;19.106;2024-02-21T10:20:08;6.55;;;1.90;;
54977;SDS011;40873;47.522;19.106;2024-02-21T10:22:37;9.18;;;1.90;;
54977;SDS011;40873;47.522;19.106;2024-02-21T10:25:07;4.22;;;1.38;;
54977;SDS011;40873;47.522;19.106;2024-02-21T10:27:34;5.55;;;2.40;;
54977;SDS011;40873;47.522;19.106;2024-02-21T10:30:07;7.45;;;2.75;;
54977;SDS011;40873;47.522;19.106;2024-02-21T10:32:48;7.05;;;2.35;;
54977;SDS011;40873;47.522;19.106;2024-02-21T10:35:29;7.57;;;2.28;;
54977;SDS011;40873;47.522;19.106;2024-02-21T10:37:57;5.72;;;2.05;;
54977;SDS011;40873;47.522;19.106;2024-02-21T10:40:26;5.15;;;1.80;;
54977;SDS011;40873;47.522;19.106;2024-02-21T10:43:01;6.25;;;2.40;;
54977;SDS011;40873;47.522;19.106;2024-02-21T10:45:32;7.45;;;2.97;;
54977;SDS011;40873;47.522;19.106;2024-02-21T10:58:58;10.40;;;3.00;;
54977;SDS011;40873;47.522;19.106;2024-02-21T11:01:28;8.50;;;2.35;;
54977;SDS011;40873;47.522;19.106;2024-02-21T11:03:58;7.00;;;2.67;;
54977;SDS011;40873;47.522;19.106;2024-02-21T11:06:29;7.05;;;2.30;;
54977;SDS011;40873;47.522;19.106;2024-02-21T11:09:04;6.97;;;2.35;;
54977;SDS011;40873;47.522;19.106;2024-02-21T11:11:39;3.65;;;2.20;;
54977;SDS011;40873;47.522;19.106;2024-02-21T11:14:09;6.90;;;2.33;;
54977;SDS011;40873;47.522;19.106;2024-02-21T11:16:46;8.65;;;2.28;;
54977;SDS011;40873;47.522;19.106;2024-02-21T11:19:25;7.63;;;3.78;;
54977;SDS011;40873;47.522;19.106;2024-02-21T11:21:54;5.43;;;2.33;;
54977;SDS011;40873;47.522;19.106;2024-02-21T11:24:25;6.28;;;2.30;;
54977;SDS011;40873;47.522;19.106;2024-02-21T11:27:19;8.25;;;2.53;;
54977;SDS011;40873;47.522;19.106;2024-02-21T11:29:49;12.00;;;3.13;;
54977;SDS011;40873;47.522;19.106;2024-02-21T11:32:21;7.28;;;1.85;;
54977;SDS011;40873;47.522;19.106;2024-02-21T11:34:55;7.97;;;2.15;;
54977;SDS011;40873;47.522;19.106;2024-02-21T11:37:24;10.43;;;2.80;;
54977;SDS011;40873;47.522;19.106;2024-02-21T11:39:57;10.57;;;2.40;;
54977;SDS011;40873;47.522;19.106;2024-02-21T11:42:27;7.22;;;3.05;;
54977;SDS011;40873;47.522;19.106;2024-02-21T11:44:56;4.95;;;1.90;;
54977;SDS011;40873;47.522;19.106;2024-02-21T11:47:24;10.73;;;2.67;;
54977;SDS011;40873;47.522;19.106;2024-02-21T11:49:51;7.30;;;2.80;;
54977;SDS011;40873;47.522;19.106;2024-02-21T11:52:22;6.80;;;2.08;;
54977;SDS011;40873;47.522;19.106;2024-02-21T11:54:55;8.80;;;2.58;;
54977;SDS011;40873;47.522;19.106;2024-02-21T11:57:31;8.90;;;3.65;;
54977;SDS011;40873;47.522;19.106;2024-02-21T11:59:58;8.13;;;2.90;;
54977;SDS011;40873;47.522;19.106;2024-02-21T12:02:29;6.57;;;2.70;;
54977;SDS011;40873;47.522;19.106;2024-02-21T12:04:56;4.78;;;2.10;;
54977;SDS011;40873;47.522;19.106;2024-02-21T12:07:24;8.18;;;2.50;;
54977;SDS011;40873;47.522;19.106;2024-02-21T12:09:51;8.18;;;3.05;;
54977;SDS011;40873;47.522;19.106;2024-02-21T12:12:22;5.72;;;2.47;;
54977;SDS011;40873;47.522;19.106;2024-02-21T12:14:54;9.52;;;2.78;;
54977;SDS011;40873;47.522;19.106;2024-02-21T12:17:22;8.93;;;2.90;;
54977;SDS011;40873;47.522;19.106;2024-02-21T12:19:50;8.13;;;2.38;;
54977;SDS011;40873;47.522;19.106;2024-02-21T12:22:18;8.40;;;2.53;;
54977;SDS011;40873;47.522;19.106;2024-02-21T12:24:46;11.93;;;3.05;;
54977;SDS011;40873;47.522;19.106;2024-02-21T12:27:15;9.20;;;2.83;;
54977;SDS011;40873;47.522;19.106;2024-02-21T12:29:42;5.72;;;2.85;;
54977;SDS011;40873;47.522;19.106;2024-02-21T12:32:09;12.02;;;3.17;;
54977;SDS011;40873;47.522;19.106;2024-02-21T12:34:36;8.57;;;2.42;;
54977;SDS011;40873;47.522;19.106;2024-02-21T12:37:19;7.65;;;2.20;;
54977;SDS011;40873;47.522;19.106;2024-02-21T12:39:47;7.28;;;2.45;;
54977;SDS011;40873;47.522;19.106;2024-02-21T12:42:15;6.43;;;2.28;;
54977;SDS011;40873;47.522;19.106;2024-02-21T12:44:42;6.47;;;2.15;;
54977;SDS011;40873;47.522;19.106;2024-02-21T12:47:10;3.78;;;1.60;;
54977;SDS011;40873;47.522;19.106;2024-02-21T12:49:37;4.22;;;1.40;;
54977;SDS011;40873;47.522;19.106;2024-02-21T12:52:10;5.60;;;1.50;;
54977;SDS011;40873;47.522;19.106;2024-02-21T12:54:37;4.22;;;1.70;;
54977;SDS011;40873;47.522;19.106;2024-02-21T12:57:05;7.60;;;2.22;;
54977;SDS011;40873;47.522;19.106;2024-02-21T12:59:32;6.78;;;2.17;;
54977;SDS011;40873;47.522;19.106;2024-02-21T13:01:59;4.80;;;1.80;;
54977;SDS011;40873;47.522;19.106;2024-02-21T13:04:26;6.80;;;1.80;;
54977;SDS011;40873;47.522;19.106;2024-02-21T13:06:53;8.18;;;1.98;;
54977;SDS011;40873;47.522;19.106;2024-02-21T13:09:21;7.13;;;1.73;;
54977;SDS011;40873;47.522;19.106;2024-02-21T13:11:49;6.55;;;1.80;;
54977;SDS011;40873;47.522;19.106;2024-02-21T13:14:18;7.53;;;2.20;;
54977;SDS011;40873;47.522;19.106;2024-02-21T13:16:45;5.15;;;1.85;;
54977;SDS011;40873;47.522;19.106;2024-02-21T13:19:12;4.57;;;1.98;;
54977;SDS011;40873;47.522;19.106;2024-02-21T13:21:44;6.47;;;3.05;;
54977;SDS011;40873;47.522;19.106;2024-02-21T13:24:11;7.25;;;2.08;;
54977;SDS011;40873;47.522;19.106;2024-02-21T13:26:38;7.18;;;2.10;;
54977;SDS011;40873;47.522;19.106;2024-02-21T13:29:05;12.00;;;2.20;;
54977;SDS011;40873;47.522;19.106;2024-02-21T13:31:33;8.95;;;2.50;;
54977;SDS011;40873;47.522;19.106;2024-02-21T13:34:00;4.65;;;2.00;;
54977;SDS011;40873;47.522;19.106;2024-02-21T13:36:27;6.18;;;2.25;;
54977;SDS011;40873;47.522;19.106;2024-02-21T13:38:54;6.18;;;2.30;;
54977;SDS011;40873;47.522;19.106;2024-02-21T13:41:21;5.15;;;1.88;;
54977;SDS011;40873;47.522;19.106;2024-02-21T13:43:49;8.45;;;2.50;;
54977;SDS011;40873;47.522;19.106;2024-02-21T13:46:17;7.18;;;1.73;;
54977;SDS011;40873;47.522;19.106;2024-02-21T13:48:44;5.43;;;1.48;;
54977;SDS011;40873;47.522;19.106;2024-02-21T13:51:11;6.45;;;1.77;;
54977;SDS011;40873;47.522;19.106;2024-02-21T13:53:38;4.80;;;2.33;;
54977;SDS011;40873;47.522;19.106;2024-02-21T13:56:05;9.60;;;1.95;;
54977;SDS011;40873;47.522;19.106;2024-02-21T13:58:32;5.75;;;1.98;;
54977;SDS011;40873;47.522;19.106;2024-02-21T14:01:00;6.53;;;1.80;;
54977;SDS011;40873;47.522;19.106;2024-02-21T14:03:27;5.72;;;1.27;;
54977;SDS011;40873;47.522;19.106;2024-02-21T14:05:54;4.60;;;1.48;;
54977;SDS011;40873;47.522;19.106;2024-02-21T14:08:21;7.10;;;1.70;;
54977;SDS011;40873;47.522;19.106;2024-02-21T14:10:50;12.27;;;2.22;;
54977;SDS011;40873;47.522;19.106;2024-02-21T14:13:18;4.80;;;1.98;;
54977;SDS011;40873;47.522;19.106;2024-02-21T14:15:45;7.95;;;2.70;;
54977;SDS011;40873;47.522;19.106;2024-02-21T14:18:16;5.18;;;1.60;;
54977;SDS011;40873;47.522;19.106;2024-02-21T14:20:44;6.15;;;1.42;;
54977;SDS011;40873;47.522;19.106;2024-02-21T14:23:14;8.50;;;2.10;;
54977;SDS011;40873;47.522;19.106;2024-02-21T14:25:41;4.93;;;1.50;;
54977;SDS011;40873;47.522;19.106;2024-02-21T14:28:08;8.82;;;2.38;;
54977;SDS011;40873;47.522;19.106;2024-02-21T14:30:38;7.47;;;2.10;;
54977;SDS011;40873;47.522;19.106;2024-02-21T14:33:08;9.85;;;1.67;;
54977;SDS011;40873;47.522;19.106;2024-02-21T14:35:36;4.70;;;1.63;;
54977;SDS011;40873;47.522;19.106;2024-02-21T14:38:03;6.15;;;1.77;;
54977;SDS011;40873;47.522;19.106;2024-02-21T14:40:30;4.72;;;1.48;;
54977;SDS011;40873;47.522;19.106;2024-02-21T14:42:57;3.50;;;1.25;;
54977;SDS011;40873;47.522;19.106;2024-02-21T14:45:24;3.95;;;1.67;;
54977;SDS011;40873;47.522;19.106;2024-02-21T14:47:51;5.47;;;1.95;;
54977;SDS011;40873;47.522;19.106;2024-02-21T14:50:18;7.03;;;1.70;;